Time;durP1;ratioP1;P1;durP2;ratioP2;P2;SDS_P1;SDS_P2;PMS_P1;PMS_P2;Temp;Humidity;BMP_temperature;BMP_pressure;BME280_temperature;BME280_humidity;BME280_pressure;Samples;Min_cycle;Max_cycle;Signal;HPM_P1;HPM_P2
2022/04/12 00:01:24;;;;;;;;;;;21.10;46.60;;;;;;5076495;28;19924;-44
2022/04/12 00:03:51;;;;;;;;;;;21.10;46.60;;;;;;5076782;28;19929;-44
2022/04/12 00:06:18;;;;;;;;;;;21.10;46.70;;;;;;5058624;28;19924;-45
2022/04/12 00:08:45;;;;;;;;;;;21.10;46.60;;;;;;5085049;28;19925;-44
2022/04/12 00:11:12;;;;;;;;;;;21.00;46.60;;;;;;5096564;28;19966;-47
2022/04/12 00:13:39;;;;;;;;;;;21.10;46.70;;;;;;5064420;28;19924;-44
2022/04/12 00:16:06;;;;;;;;;;;21.00;46.60;;;;;;5076543;28;19931;-46
2022/04/12 00:21:19;;;;;;;;;;;21.00;46.60;;;;;;5076372;28;19960;-44
2022/04/12 00:23:46;;;;;;;;;;;21.00;46.60;;;;;;5083188;28;20014;-43
2022/04/12 00:26:14;;;;;;;;;;;21.00;46.60;;;;;;5095313;28;20026;-44
2022/04/12 00:28:41;;;;;;;;;;;21.00;46.60;;;;;;5095532;28;19924;-44
2022/04/12 00:31:08;;;;;;;;;;;21.00;46.60;;;;;;5096208;28;19924;-44
2022/04/12 00:33:36;;;;;;;;;;;21.00;46.60;;;;;;5096145;28;19924;-44
2022/04/12 00:36:04;;;;;;;;;;;21.00;46.60;;;;;;5062143;28;19929;-44
2022/04/12 00:38:35;;;;;;;;;;;21.00;46.60;;;;;;5095120;28;19977;-45
2022/04/12 00:41:08;;;;;;;;;;;21.00;46.60;;;;;;5096403;28;19924;-46
2022/04/12 00:43:36;;;;;;;;;;;21.00;46.70;;;;;;5094865;28;19924;-44
2022/04/12 00:46:03;;;;;;;;;;;21.00;46.70;;;;;;5096235;28;19982;-44
2022/04/12 00:48:31;;;;;;;;;;;21.00;46.70;;;;;;5096494;28;20326;-44
2022/04/12 00:50:59;;;;;;;;;;;21.00;46.70;;;;;;5096091;28;19924;-44
2022/04/12 00:53:26;;;;;;;;;;;21.00;46.70;;;;;;5095150;28;19956;-43
2022/04/12 00:55:53;;;;;;;;;;;21.00;46.70;;;;;;5096032;28;19928;-43
2022/04/12 00:58:20;;;;;;;;;;;21.00;46.70;;;;;;5087126;28;19998;-45
2022/04/12 01:00:49;;;;;;;;;;;21.00;46.70;;;;;;5075654;28;19929;-43
2022/04/12 01:03:16;;;;;;;;;;;21.00;46.80;;;;;;5075338;28;20376;-43
2022/04/12 01:05:43;;;;;;;;;;;21.00;46.70;;;;;;5075548;28;20034;-43
2022/04/12 01:08:10;;;;;;;;;;;21.00;46.70;;;;;;5075182;28;20426;-44
2022/04/12 01:10:38;;;;;;;;;;;21.00;46.70;;;;;;5093862;28;19924;-43
2022/04/12 01:13:05;;;;;;;;;;;21.00;46.70;;;;;;5095007;28;20338;-44
2022/04/12 01:15:32;;;;;;;;;;;21.00;46.70;;;;;;5095336;28;20379;-43
2022/04/12 01:17:59;;;;;;;;;;;21.00;46.70;;;;;;5077670;28;19924;-43
2022/04/12 01:20:30;;;;;;;;;;;21.00;46.70;;;;;;5095067;28;19924;-44
2022/04/12 01:23:09;;;;;;;;;;;21.00;46.70;;;;;;5095286;28;20326;-43
2022/04/12 01:25:39;;;;;;;;;;;21.00;46.70;;;;;;5094371;28;19924;-43
2022/04/12 01:28:07;;;;;;;;;;;20.90;46.60;;;;;;5091562;28;20393;-44
2022/04/12 01:30:34;;;;;;;;;;;20.90;46.60;;;;;;5075084;28;19978;-44
2022/04/12 01:33:01;;;;;;;;;;;20.90;46.70;;;;;;5075284;28;19924;-43
2022/04/12 01:35:28;;;;;;;;;;;20.90;46.70;;;;;;5075256;28;19973;-44
2022/04/12 01:37:55;;;;;;;;;;;20.90;46.70;;;;;;5074747;28;19924;-44
2022/04/12 01:40:22;;;;;;;;;;;20.90;46.70;;;;;;5088759;28;19977;-45
2022/04/12 01:42:52;;;;;;;;;;;20.90;46.70;;;;;;5094670;28;19931;-43
2022/04/12 01:45:24;;;;;;;;;;;20.90;46.70;;;;;;5094871;28;20030;-44
2022/04/12 01:47:52;;;;;;;;;;;20.90;46.70;;;;;;5094784;28;19931;-43
2022/04/12 01:50:19;;;;;;;;;;;20.90;46.70;;;;;;5095093;28;20326;-43
2022/04/12 01:52:46;;;;;;;;;;;20.90;46.70;;;;;;5094651;28;20383;-44
2022/04/12 01:55:14;;;;;;;;;;;20.90;46.70;;;;;;5093460;28;19981;-43
2022/04/12 01:57:41;;;;;;;;;;;20.90;46.70;;;;;;5094543;28;19932;-43
2022/04/12 02:00:09;;;;;;;;;;;20.90;46.70;;;;;;5076261;28;19929;-43
2022/04/12 02:02:35;;;;;;;;;;;20.90;46.70;;;;;;5074160;28;19931;-43
2022/04/12 02:05:03;;;;;;;;;;;20.90;46.70;;;;;;5074134;28;19924;-43
2022/04/12 02:07:30;;;;;;;;;;;20.90;46.70;;;;;;5074023;28;19981;-43
2022/04/12 02:09:57;;;;;;;;;;;20.90;46.70;;;;;;5082036;28;19928;-44
2022/04/12 02:12:24;;;;;;;;;;;20.90;46.80;;;;;;5094302;28;19963;-45
2022/04/12 02:14:51;;;;;;;;;;;20.90;46.80;;;;;;5093644;28;19967;-43
2022/04/12 02:17:18;;;;;;;;;;;20.90;46.80;;;;;;5095058;28;19969;-44
2022/04/12 02:19:45;;;;;;;;;;;20.90;46.80;;;;;;5094613;28;19924;-44
2022/04/12 02:22:12;;;;;;;;;;;20.90;46.80;;;;;;5093848;28;19978;-46
2022/04/12 02:24:39;;;;;;;;;;;20.90;46.80;;;;;;5093314;28;19969;-44
2022/04/12 02:27:06;;;;;;;;;;;20.90;46.80;;;;;;5094388;28;19969;-44
2022/04/12 02:29:33;;;;;;;;;;;20.90;46.80;;;;;;5092882;28;19993;-45
2022/04/12 02:32:00;;;;;;;;;;;20.90;46.80;;;;;;5094030;28;19974;-44
2022/04/12 02:34:27;;;;;;;;;;;20.90;46.80;;;;;;5094321;28;19973;-43
2022/04/12 02:36:54;;;;;;;;;;;20.90;46.80;;;;;;5094176;28;19941;-44
2022/04/12 02:39:21;;;;;;;;;;;20.90;46.80;;;;;;5093567;28;20351;-51
2022/04/12 02:41:48;;;;;;;;;;;20.90;46.80;;;;;;5076088;28;19928;-47
2022/04/12 02:44:16;;;;;;;;;;;20.90;46.80;;;;;;5087722;28;19931;-45
2022/04/12 02:46:43;;;;;;;;;;;20.90;46.80;;;;;;5073682;28;19931;-46
2022/04/12 02:49:10;;;;;;;;;;;20.90;46.70;;;;;;5073942;28;19947;-43
2022/04/12 02:51:37;;;;;;;;;;;20.90;46.80;;;;;;5073909;28;19931;-44
2022/04/12 02:54:04;;;;;;;;;;;20.90;46.80;;;;;;5073911;28;19974;-45
2022/04/12 02:56:31;;;;;;;;;;;20.90;46.80;;;;;;5089953;28;19978;-44
2022/04/12 02:58:58;;;;;;;;;;;20.80;46.70;;;;;;5092812;28;19974;-43
2022/04/12 03:01:25;;;;;;;;;;;20.80;46.70;;;;;;5093940;28;20288;-45
2022/04/12 03:03:52;;;;;;;;;;;20.80;46.80;;;;;;5093681;28;20045;-44
2022/04/12 03:06:19;;;;;;;;;;;20.80;46.70;;;;;;5094101;28;19954;-44
2022/04/12 03:08:46;;;;;;;;;;;20.80;46.80;;;;;;5093577;28;20041;-44
2022/04/12 03:11:13;;;;;;;;;;;20.80;46.80;;;;;;5093020;28;19928;-43
2022/04/12 03:13:41;;;;;;;;;;;20.80;46.70;;;;;;5094460;28;19931;-45
2022/04/12 03:16:08;;;;;;;;;;;20.80;46.70;;;;;;5074681;28;19925;-44
2022/04/12 03:18:35;;;;;;;;;;;20.80;46.80;;;;;;5073856;28;19931;-46
2022/04/12 03:21:02;;;;;;;;;;;20.80;46.80;;;;;;5073433;28;19960;-44
2022/04/12 03:23:29;;;;;;;;;;;20.80;46.80;;;;;;5073270;28;19986;-44
2022/04/12 03:25:56;;;;;;;;;;;20.80;46.80;;;;;;5082169;28;20270;-45
2022/04/12 03:28:23;;;;;;;;;;;20.80;46.70;;;;;;5093386;28;19924;-44
2022/04/12 03:30:50;;;;;;;;;;;20.80;46.70;;;;;;5092753;28;19994;-49
2022/04/12 03:33:17;;;;;;;;;;;20.80;46.80;;;;;;5093420;28;19924;-43
2022/04/12 03:35:44;;;;;;;;;;;20.80;46.80;;;;;;5093332;28;19928;-43
2022/04/12 03:38:13;;;;;;;;;;;20.80;46.80;;;;;;5075509;28;19924;-44
2022/04/12 03:40:41;;;;;;;;;;;20.80;46.70;;;;;;5092329;28;19969;-44
2022/04/12 03:43:09;;;;;;;;;;;20.80;46.80;;;;;;5093612;28;19969;-43
2022/04/12 03:45:36;;;;;;;;;;;20.80;46.80;;;;;;5092436;28;20396;-44
2022/04/12 03:48:04;;;;;;;;;;;20.80;46.80;;;;;;5093586;28;19924;-44
2022/04/12 03:50:31;;;;;;;;;;;20.80;46.80;;;;;;5093174;28;19924;-48
2022/04/12 03:52:58;;;;;;;;;;;20.80;46.80;;;;;;5093796;28;19928;-44
2022/04/12 03:55:31;;;;;;;;;;;20.80;46.80;;;;;;5092846;28;19936;-43
2022/04/12 03:57:58;;;;;;;;;;;20.80;46.80;;;;;;5093539;28;19963;-45
2022/04/12 04:00:26;;;;;;;;;;;20.80;46.80;;;;;;5093712;28;19984;-44
2022/04/12 04:02:54;;;;;;;;;;;20.80;46.80;;;;;;5097922;28;19998;-43
2022/04/12 04:05:21;;;;;;;;;;;20.80;47.30;;;;;;5097856;28;19931;-46
2022/04/12 04:07:49;;;;;;;;;;;20.80;46.80;;;;;;5096922;28;20295;-47
2022/04/12 04:10:16;;;;;;;;;;;20.80;46.80;;;;;;5096448;28;19924;-44
2022/04/12 04:12:44;;;;;;;;;;;20.80;46.80;;;;;;5096531;28;19924;-44
2022/04/12 04:15:14;;;;;;;;;;;20.80;46.80;;;;;;5095700;28;20415;-43
2022/04/12 04:17:42;;;;;;;;;;;20.80;46.80;;;;;;5096522;28;19930;-46
2022/04/12 04:20:12;;;;;;;;;;;20.80;46.80;;;;;;5096925;28;19924;-46
2022/04/12 04:22:40;;;;;;;;;;;20.80;46.80;;;;;;5096618;28;19986;-45
2022/04/12 04:25:08;;;;;;;;;;;20.80;46.80;;;;;;5096378;28;19977;-44
2022/04/12 04:27:35;;;;;;;;;;;20.80;46.80;;;;;;5095387;28;19924;-44
2022/04/12 04:30:07;;;;;;;;;;;20.80;46.80;;;;;;5093161;28;19962;-46
2022/04/12 04:32:35;;;;;;;;;;;20.80;46.80;;;;;;5076235;28;20346;-47
2022/04/12 04:35:03;;;;;;;;;;;20.80;46.80;;;;;;5075892;28;19929;-43
2022/04/12 04:37:30;;;;;;;;;;;20.80;46.80;;;;;;5076135;28;19924;-43
2022/04/12 04:39:57;;;;;;;;;;;20.80;46.70;;;;;;5075743;28;20368;-48
2022/04/12 04:42:24;;;;;;;;;;;20.80;46.70;;;;;;5090531;28;19931;-43
2022/04/12 04:44:51;;;;;;;;;;;20.80;46.70;;;;;;5095931;28;20040;-43
2022/04/12 04:47:18;;;;;;;;;;;20.80;47.30;;;;;;5095752;28;19993;-43
2022/04/12 04:49:45;;;;;;;;;;;20.80;46.70;;;;;;5095770;28;19924;-44
2022/04/12 04:52:12;;;;;;;;;;;20.80;46.70;;;;;;5078020;28;19925;-43
2022/04/12 04:54:39;;;;;;;;;;;20.80;46.70;;;;;;5095744;28;19924;-43
2022/04/12 04:57:06;;;;;;;;;;;20.80;46.70;;;;;;5094614;28;19924;-44
2022/04/12 04:59:33;;;;;;;;;;;20.80;46.70;;;;;;5095951;28;20299;-43
2022/04/12 05:02:00;;;;;;;;;;;20.80;46.70;;;;;;5094173;28;19985;-49
2022/04/12 05:04:27;;;;;;;;;;;20.80;46.60;;;;;;5095569;28;20376;-45
2022/04/12 05:06:54;;;;;;;;;;;20.80;46.60;;;;;;5095445;28;19924;-43
2022/04/12 05:09:21;;;;;;;;;;;20.80;46.60;;;;;;5095711;28;19924;-44
2022/04/12 05:11:48;;;;;;;;;;;20.80;46.60;;;;;;5094353;28;19925;-49
2022/04/12 05:14:15;;;;;;;;;;;20.80;46.70;;;;;;5095590;28;19932;-43
2022/04/12 05:16:42;;;;;;;;;;;20.80;46.50;;;;;;5076832;28;19923;-44
2022/04/12 05:19:09;;;;;;;;;;;20.80;46.50;;;;;;5095529;28;20007;-44
2022/04/12 05:21:36;;;;;;;;;;;20.80;46.50;;;;;;5095304;28;19973;-44
2022/04/12 05:24:04;;;;;;;;;;;20.90;46.60;;;;;;5095001;28;19975;-49
2022/04/12 05:26:31;;;;;;;;;;;20.90;46.60;;;;;;5093959;28;19974;-47
2022/04/12 05:28:58;;;;;;;;;;;20.90;46.50;;;;;;5094846;28;19924;-43
2022/04/12 05:31:25;;;;;;;;;;;20.90;46.50;;;;;;5093845;28;19928;-43
2022/04/12 05:33:58;;;;;;;;;;;20.90;46.50;;;;;;5094988;28;19931;-44
2022/04/12 05:36:25;;;;;;;;;;;20.90;46.50;;;;;;5094846;28;19928;-44
2022/04/12 05:38:52;;;;;;;;;;;20.90;46.50;;;;;;5095141;28;19928;-43
2022/04/12 05:41:19;;;;;;;;;;;20.90;46.50;;;;;;5094189;28;19924;-46
2022/04/12 05:43:46;;;;;;;;;;;20.90;46.40;;;;;;5074744;28;19925;-46
2022/04/12 05:46:13;;;;;;;;;;;20.90;46.50;;;;;;5061398;28;19928;-46
2022/04/12 05:48:40;;;;;;;;;;;20.90;46.50;;;;;;5094641;28;19924;-44
2022/04/12 05:51:07;;;;;;;;;;;20.90;46.40;;;;;;5094839;28;19931;-46
2022/04/12 05:53:35;;;;;;;;;;;20.90;46.40;;;;;;5094592;28;19934;-43
2022/04/12 05:56:02;;;;;;;;;;;20.90;46.40;;;;;;5094878;28;20361;-46
2022/04/12 05:58:32;;;;;;;;;;;20.90;46.30;;;;;;5094172;28;19989;-44
2022/04/12 06:00:59;;;;;;;;;;;20.90;46.40;;;;;;5093764;28;19972;-43
2022/04/12 06:03:26;;;;;;;;;;;20.90;46.30;;;;;;5094661;28;19977;-50
2022/04/12 06:05:53;;;;;;;;;;;20.90;46.30;;;;;;5095377;28;19923;-51
2022/04/12 06:08:20;;;;;;;;;;;21.00;46.40;;;;;;5094306;28;20384;-44
2022/04/12 06:10:47;;;;;;;;;;;21.00;46.30;;;;;;5094259;28;19978;-43
2022/04/12 06:13:14;;;;;;;;;;;21.00;46.30;;;;;;5093873;28;20341;-45
2022/04/12 06:15:41;;;;;;;;;;;21.00;46.30;;;;;;5094265;28;20395;-43
2022/04/12 06:18:10;;;;;;;;;;;21.00;46.30;;;;;;5092559;28;19924;-46
2022/04/12 06:20:37;;;;;;;;;;;21.00;46.30;;;;;;5095053;28;20039;-44
2022/04/12 06:23:04;;;;;;;;;;;21.00;46.30;;;;;;5093182;28;19924;-46
2022/04/12 06:25:31;;;;;;;;;;;21.00;46.30;;;;;;5094685;28;19924;-48
2022/04/12 06:27:58;;;;;;;;;;;21.00;46.30;;;;;;5093396;28;19925;-47
2022/04/12 06:30:26;;;;;;;;;;;21.00;46.30;;;;;;5094623;28;19927;-46
2022/04/12 06:32:54;;;;;;;;;;;21.00;46.20;;;;;;5093343;28;19924;-44
2022/04/12 06:35:21;;;;;;;;;;;21.00;46.20;;;;;;5093974;28;19931;-44
2022/04/12 06:37:50;;;;;;;;;;;21.00;46.20;;;;;;5093808;28;19979;-45
2022/04/12 06:40:19;;;;;;;;;;;21.00;46.20;;;;;;5093748;28;19977;-48
2022/04/12 06:42:47;;;;;;;;;;;21.00;46.20;;;;;;5093994;28;19927;-42
2022/04/12 06:45:14;;;;;;;;;;;21.10;46.30;;;;;;5076387;28;19928;-43
2022/04/12 06:47:42;;;;;;;;;;;21.00;46.20;;;;;;5093115;28;19924;-43
2022/04/12 06:50:12;;;;;;;;;;;21.00;46.20;;;;;;5094036;28;19924;-46
2022/04/12 06:52:40;;;;;;;;;;;21.10;46.30;;;;;;5094007;28;20337;-49
2022/04/12 06:55:07;;;;;;;;;;;21.00;46.20;;;;;;5093711;28;19928;-49
2022/04/12 06:57:34;;;;;;;;;;;21.00;46.20;;;;;;5093099;28;20337;-50
2022/04/12 07:00:03;;;;;;;;;;;21.00;46.20;;;;;;5093670;28;19924;-44
2022/04/12 07:02:30;;;;;;;;;;;21.10;46.30;;;;;;5092458;28;20399;-43
2022/04/12 07:04:57;;;;;;;;;;;21.10;46.20;;;;;;5093646;28;19969;-48
2022/04/12 07:07:24;;;;;;;;;;;21.10;46.30;;;;;;5093542;28;20455;-49
2022/04/12 07:09:51;;;;;;;;;;;21.10;46.30;;;;;;5093619;28;19936;-47
2022/04/12 07:12:18;;;;;;;;;;;21.00;46.20;;;;;;5092745;28;19924;-47
2022/04/12 07:14:45;;;;;;;;;;;21.00;46.20;;;;;;5075860;28;19989;-50
2022/04/12 07:17:17;;;;;;;;;;;21.00;46.20;;;;;;5092813;28;20383;-52
2022/04/12 07:19:44;;;;;;;;;;;21.00;46.20;;;;;;5093537;28;19954;-49
2022/04/12 07:22:12;;;;;;;;;;;21.00;46.20;;;;;;5093081;28;19963;-52
2022/04/12 07:24:39;;;;;;;;;;;21.00;46.20;;;;;;5093516;28;19924;-51
2022/04/12 07:27:06;;;;;;;;;;;21.00;46.20;;;;;;5075877;28;20351;-47
2022/04/12 07:29:33;;;;;;;;;;;21.00;46.20;;;;;;5074840;28;19924;-48
2022/04/12 07:32:00;;;;;;;;;;;21.00;46.30;;;;;;5092514;28;19974;-49
2022/04/12 07:34:27;;;;;;;;;;;21.00;46.30;;;;;;5074040;28;19978;-48
2022/04/12 07:36:54;;;;;;;;;;;21.00;46.20;;;;;;5076856;28;19970;-45
2022/04/12 07:39:21;;;;;;;;;;;21.00;46.20;;;;;;5076945;28;19929;-48
2022/04/12 07:41:49;;;;;;;;;;;21.00;46.20;;;;;;5076993;28;19929;-47
2022/04/12 07:44:17;;;;;;;;;;;21.00;46.10;;;;;;5090400;28;20330;-47
2022/04/12 07:46:44;;;;;;;;;;;21.00;46.10;;;;;;5097391;28;19924;-50
2022/04/12 07:49:11;;;;;;;;;;;21.00;46.10;;;;;;5078069;28;19924;-48
2022/04/12 07:51:39;;;;;;;;;;;21.00;46.10;;;;;;5076915;28;19924;-44
2022/04/12 07:54:06;;;;;;;;;;;21.00;46.10;;;;;;5076864;28;19936;-51
2022/04/12 07:56:34;;;;;;;;;;;21.00;46.00;;;;;;5076505;28;20296;-44
2022/04/12 07:59:01;;;;;;;;;;;21.00;46.00;;;;;;5086615;28;19924;-43
2022/04/12 08:01:28;;;;;;;;;;;21.00;46.00;;;;;;5097251;28;19928;-48
2022/04/12 08:03:55;;;;;;;;;;;21.00;46.00;;;;;;5095922;28;19928;-49
2022/04/12 08:06:22;;;;;;;;;;;21.00;45.90;;;;;;5078846;28;20352;-47
2022/04/12 08:08:50;;;;;;;;;;;21.00;45.80;;;;;;5096639;28;19996;-48
2022/04/12 08:11:17;;;;;;;;;;;21.00;45.80;;;;;;5096578;28;19924;-48
2022/04/12 08:13:45;;;;;;;;;;;21.00;45.80;;;;;;5095460;28;19950;-45
2022/04/12 08:16:15;;;;;;;;;;;21.00;45.70;;;;;;5097340;28;19935;-49
2022/04/12 08:18:46;;;;;;;;;;;21.10;45.80;;;;;;5095237;28;19928;-50
2022/04/12 08:21:13;;;;;;;;;;;21.10;45.70;;;;;;5096162;28;19924;-45
2022/04/12 08:23:41;;;;;;;;;;;21.10;45.70;;;;;;5096340;28;19931;-45
2022/04/12 08:26:08;;;;;;;;;;;21.10;45.60;;;;;;5096235;28;19924;-46
2022/04/12 08:28:35;;;;;;;;;;;21.10;45.50;;;;;;5095769;28;19924;-50
2022/04/12 08:31:02;;;;;;;;;;;21.10;45.50;;;;;;5096006;28;19954;-45
2022/04/12 08:33:29;;;;;;;;;;;21.10;45.50;;;;;;5095302;28;19955;-51
2022/04/12 08:35:56;;;;;;;;;;;21.20;45.50;;;;;;5095733;28;19947;-52
2022/04/12 08:38:23;;;;;;;;;;;21.20;45.50;;;;;;5096319;28;19969;-45
2022/04/12 08:40:53;;;;;;;;;;;21.20;45.40;;;;;;5077988;28;19924;-46
2022/04/12 08:43:21;;;;;;;;;;;21.20;45.40;;;;;;5095167;28;19927;-46
2022/04/12 08:45:48;;;;;;;;;;;21.20;45.30;;;;;;5095505;28;19924;-46
2022/04/12 08:48:16;;;;;;;;;;;21.20;45.30;;;;;;5095028;28;19928;-45
2022/04/12 08:50:44;;;;;;;;;;;21.20;45.30;;;;;;5095994;28;19924;-44
2022/04/12 08:53:12;;;;;;;;;;;21.30;45.30;;;;;;5096074;28;19924;-44
2022/04/12 08:55:40;;;;;;;;;;;21.30;45.30;;;;;;5095711;28;19928;-44
2022/04/12 08:58:08;;;;;;;;;;;21.30;45.20;;;;;;5095663;28;20346;-45
2022/04/12 09:00:35;;;;;;;;;;;21.30;45.20;;;;;;5076830;28;19969;-45
2022/04/12 09:03:03;;;;;;;;;;;21.30;45.20;;;;;;5094169;28;20383;-48
2022/04/12 09:05:32;;;;;;;;;;;21.30;45.10;;;;;;5095463;28;19932;-50
2022/04/12 09:08:00;;;;;;;;;;;21.40;45.70;;;;;;5095357;28;19925;-46
2022/04/12 09:10:34;;;;;;;;;;;21.40;45.10;;;;;;5095413;28;19924;-46
2022/04/12 09:13:11;;;;;;;;;;;21.40;45.10;;;;;;5095657;28;20303;-44
2022/04/12 09:15:45;;;;;;;;;;;21.40;45.00;;;;;;5094452;28;19924;-47
2022/04/12 09:18:35;;;;;;;;;;;21.50;45.00;;;;;;5091005;28;19971;-45
2022/04/12 09:21:11;;;;;;;;;;;21.50;45.00;;;;;;5074697;28;19924;-44
2022/04/12 09:23:46;;;;;;;;;;;21.50;44.90;;;;;;5074996;28;19944;-44
2022/04/12 09:26:21;;;;;;;;;;;21.50;44.90;;;;;;5075175;28;19924;-44
2022/04/12 09:28:49;;;;;;;;;;;21.60;45.00;;;;;;5075097;28;19925;-48
2022/04/12 09:31:21;;;;;;;;;;;21.60;44.90;;;;;;5095095;28;19924;-44
2022/04/12 09:33:48;;;;;;;;;;;21.60;44.90;;;;;;5090290;28;19932;-44
2022/04/12 09:36:16;;;;;;;;;;;21.60;44.90;;;;;;5074710;28;19928;-46
2022/04/12 09:38:44;;;;;;;;;;;21.60;44.80;;;;;;5074624;28;19985;-48
2022/04/12 09:41:22;;;;;;;;;;;21.60;44.80;;;;;;5074853;28;19974;-44
2022/04/12 09:44:05;;;;;;;;;;;21.60;44.80;;;;;;5074136;28;20384;-44
2022/04/12 09:46:33;;;;;;;;;;;21.70;44.80;;;;;;5074809;28;19978;-44
2022/04/12 09:49:00;;;;;;;;;;;21.70;44.70;;;;;;5079203;28;19970;-43
2022/04/12 09:51:27;;;;;;;;;;;21.70;44.80;;;;;;5094920;28;19924;-44
2022/04/12 09:53:54;;;;;;;;;;;21.70;44.80;;;;;;5094575;28;20414;-46
2022/04/12 09:56:24;;;;;;;;;;;21.70;44.70;;;;;;5094878;28;19928;-47
2022/04/12 09:58:55;;;;;;;;;;;21.70;44.70;;;;;;5094523;28;20405;-46
2022/04/12 10:01:23;;;;;;;;;;;21.70;44.70;;;;;;5094129;28;20272;-50
2022/04/12 10:03:52;;;;;;;;;;;21.70;44.70;;;;;;5092234;28;20001;-52
2022/04/12 10:06:20;;;;;;;;;;;21.70;44.70;;;;;;5074033;28;19978;-47
2022/04/12 10:08:51;;;;;;;;;;;21.80;44.60;;;;;;5074943;28;19931;-43
2022/04/12 10:11:19;;;;;;;;;;;21.80;44.60;;;;;;5074088;28;20384;-46
2022/04/12 10:13:46;;;;;;;;;;;21.80;44.60;;;;;;5074328;28;19928;-46
2022/04/12 10:16:17;;;;;;;;;;;21.80;44.50;;;;;;5090370;28;19931;-44
2022/04/12 10:18:45;;;;;;;;;;;21.80;44.50;;;;;;5093792;28;20401;-44
2022/04/12 10:21:15;;;;;;;;;;;21.90;44.50;;;;;;5094142;28;19924;-44
2022/04/12 10:23:47;;;;;;;;;;;21.90;44.50;;;;;;5094111;28;19928;-44
2022/04/12 10:26:19;;;;;;;;;;;21.90;44.50;;;;;;5094045;28;20209;-44
2022/04/12 10:28:50;;;;;;;;;;;21.90;44.50;;;;;;5094161;28;19973;-44
2022/04/12 10:31:19;;;;;;;;;;;21.90;44.50;;;;;;5093185;28;19932;-44
2022/04/12 10:34:09;;;;;;;;;;;21.90;44.50;;;;;;5093302;28;19928;-45
2022/04/12 10:36:55;;;;;;;;;;;21.90;44.50;;;;;;5094979;28;19928;-44
2022/04/12 10:39:45;;;;;;;;;;;21.90;44.50;;;;;;5093927;28;19970;-47
2022/04/12 10:42:17;;;;;;;;;;;21.90;44.60;;;;;;5076416;28;19924;-51
2022/04/12 10:44:46;;;;;;;;;;;21.80;44.50;;;;;;5093000;28;20284;-51
2022/04/12 10:47:24;;;;;;;;;;;21.90;44.60;;;;;;5094347;28;19947;-49
2022/04/12 10:49:53;;;;;;;;;;;21.90;44.60;;;;;;5093358;28;19924;-52
2022/04/12 10:52:30;;;;;;;;;;;21.90;44.60;;;;;;5093954;28;20287;-46
2022/04/12 10:54:58;;;;;;;;;;;21.90;44.60;;;;;;5076037;28;20379;-46
2022/04/12 10:57:26;;;;;;;;;;;21.90;44.60;;;;;;5075884;28;19928;-46
2022/04/12 10:59:53;;;;;;;;;;;21.90;44.60;;;;;;5092544;28;19963;-47
2022/04/12 11:02:21;;;;;;;;;;;21.90;44.60;;;;;;5093604;28;19924;-44
2022/04/12 11:04:48;;;;;;;;;;;21.90;44.60;;;;;;5092518;28;19928;-44
2022/04/12 11:07:28;;;;;;;;;;;21.90;44.60;;;;;;5093840;28;19928;-48
2022/04/12 11:10:05;;;;;;;;;;;21.90;44.70;;;;;;5095460;28;19932;-46
2022/04/12 11:12:39;;;;;;;;;;;21.90;44.70;;;;;;5098653;28;20249;-45
2022/04/12 11:15:19;;;;;;;;;;;21.90;44.70;;;;;;5096799;28;20688;-49
2022/04/12 11:17:46;;;;;;;;;;;21.90;44.70;;;;;;5097918;28;19967;-45
2022/04/12 11:20:21;;;;;;;;;;;21.90;44.70;;;;;;5091173;28;20295;-44
2022/04/12 11:22:57;;;;;;;;;;;21.90;44.70;;;;;;5077063;28;20075;-47
2022/04/12 11:25:26;;;;;;;;;;;21.90;44.70;;;;;;5077559;28;19931;-50
2022/04/12 11:27:56;;;;;;;;;;;21.90;44.70;;;;;;5077498;28;19925;-47
2022/04/12 11:30:25;;;;;;;;;;;21.90;44.70;;;;;;5079947;28;20001;-45
2022/04/12 11:32:53;;;;;;;;;;;21.90;44.70;;;;;;5097710;28;20022;-47
2022/04/12 11:35:21;;;;;;;;;;;21.90;44.70;;;;;;5090230;28;19980;-49
2022/04/12 11:37:49;;;;;;;;;;;21.90;44.70;;;;;;5077279;28;19974;-49
2022/04/12 11:40:16;;;;;;;;;;;21.90;44.70;;;;;;5077480;28;19925;-44
2022/04/12 11:42:43;;;;;;;;;;;21.90;44.70;;;;;;5076759;28;19954;-44
2022/04/12 11:45:13;;;;;;;;;;;21.90;44.70;;;;;;5076639;28;19955;-45
2022/04/12 11:47:44;;;;;;;;;;;21.90;44.70;;;;;;5076733;28;19968;-45
2022/04/12 11:50:17;;;;;;;;;;;21.90;44.70;;;;;;5080077;28;19928;-45
2022/04/12 11:52:45;;;;;;;;;;;21.90;44.70;;;;;;5096900;28;19973;-45
2022/04/12 11:55:12;;;;;;;;;;;21.90;44.70;;;;;;5097160;28;19974;-45
2022/04/12 11:57:41;;;;;;;;;;;21.90;44.70;;;;;;5097081;28;19946;-45
2022/04/12 12:00:09;;;;;;;;;;;21.90;44.70;;;;;;5097073;28;20337;-45
2022/04/12 12:02:38;;;;;;;;;;;21.90;44.80;;;;;;5096138;28;19924;-46
2022/04/12 12:05:07;;;;;;;;;;;21.80;44.70;;;;;;5095034;28;19931;-44
2022/04/12 12:07:36;;;;;;;;;;;21.90;44.70;;;;;;5076445;28;19970;-44
2022/04/12 12:10:05;;;;;;;;;;;21.90;44.70;;;;;;5076381;28;19931;-46
2022/04/12 12:12:32;;;;;;;;;;;21.90;44.80;;;;;;5076395;28;19931;-43
2022/04/12 12:15:11;;;;;;;;;;;21.90;44.70;;;;;;5076617;28;19978;-46
2022/04/12 12:17:38;;;;;;;;;;;21.90;44.80;;;;;;5094262;28;19973;-44
2022/04/12 12:20:07;;;;;;;;;;;21.90;44.80;;;;;;5096111;28;19924;-45
2022/04/12 12:22:38;;;;;;;;;;;21.90;44.80;;;;;;5057250;28;19978;-44
2022/04/12 12:25:05;;;;;;;;;;;21.90;44.70;;;;;;5076196;28;19928;-44
2022/04/12 12:27:34;;;;;;;;;;;21.90;44.70;;;;;;5076117;28;19971;-44
2022/04/12 12:30:04;;;;;;;;;;;21.90;44.70;;;;;;5076014;28;19924;-44
2022/04/12 12:32:34;;;;;;;;;;;21.90;44.70;;;;;;5091724;28;19924;-47
2022/04/12 12:35:09;;;;;;;;;;;21.90;44.70;;;;;;5096290;28;19924;-48
2022/04/12 12:37:38;;;;;;;;;;;21.90;44.70;;;;;;5076157;28;20338;-44
2022/04/12 12:40:19;;;;;;;;;;;21.90;44.70;;;;;;5076159;28;19942;-44
2022/04/12 12:42:46;;;;;;;;;;;21.90;44.70;;;;;;5075970;28;19925;-44
2022/04/12 12:45:15;;;;;;;;;;;21.90;44.70;;;;;;5076590;28;19964;-47
2022/04/12 12:47:43;;;;;;;;;;;21.90;44.70;;;;;;5091155;28;19931;-45
2022/04/12 12:50:11;;;;;;;;;;;21.90;44.70;;;;;;5096197;28;19924;-44
2022/04/12 12:52:39;;;;;;;;;;;21.90;44.70;;;;;;5076807;28;20363;-45
2022/04/12 12:55:14;;;;;;;;;;;21.90;44.70;;;;;;5075556;28;20375;-48
2022/04/12 12:57:45;;;;;;;;;;;21.90;44.70;;;;;;5075525;28;20011;-47
2022/04/12 13:00:13;;;;;;;;;;;21.90;44.70;;;;;;5057726;28;20384;-45
2022/04/12 13:02:40;;;;;;;;;;;21.90;44.70;;;;;;5089519;28;19924;-45
2022/04/12 13:05:08;;;;;;;;;;;21.90;44.70;;;;;;5096039;28;19966;-44
2022/04/12 13:07:37;;;;;;;;;;;21.90;44.70;;;;;;5078439;28;19978;-47
2022/04/12 13:10:09;;;;;;;;;;;21.90;44.70;;;;;;5075302;28;20441;-49
2022/04/12 13:12:37;;;;;;;;;;;21.90;44.70;;;;;;5076067;28;19924;-45
2022/04/12 13:15:05;;;;;;;;;;;21.90;44.70;;;;;;5075192;28;20428;-46
2022/04/12 13:17:32;;;;;;;;;;;21.90;44.70;;;;;;5086850;28;20015;-49
2022/04/12 13:19:59;;;;;;;;;;;21.90;44.70;;;;;;5096173;28;19928;-47
2022/04/12 13:22:27;;;;;;;;;;;21.90;44.70;;;;;;5094506;28;20288;-44
2022/04/12 13:24:54;;;;;;;;;;;21.90;44.70;;;;;;5077699;28;19928;-44
2022/04/12 13:27:21;;;;;;;;;;;21.90;44.60;;;;;;5095434;28;19928;-46
2022/04/12 13:29:48;;;;;;;;;;;21.90;44.70;;;;;;5095410;28;19970;-47
2022/04/12 13:32:15;;;;;;;;;;;21.90;45.30;;;;;;5093889;28;19924;-44
2022/04/12 13:34:43;;;;;;;;;;;21.90;44.70;;;;;;5095012;28;19933;-45
2022/04/12 13:37:10;;;;;;;;;;;21.90;44.60;;;;;;5093942;28;19977;-46
2022/04/12 13:39:37;;;;;;;;;;;21.90;44.60;;;;;;5095054;28;19947;-49
2022/04/12 13:42:05;;;;;;;;;;;21.90;44.60;;;;;;5095092;28;19925;-44
2022/04/12 13:44:33;;;;;;;;;;;21.90;44.60;;;;;;5095181;28;20083;-44
2022/04/12 13:47:01;;;;;;;;;;;22.00;44.70;;;;;;5094203;28;19978;-45
2022/04/12 13:49:29;;;;;;;;;;;21.90;45.20;;;;;;5077154;28;19978;-45
2022/04/12 13:51:56;;;;;;;;;;;21.90;44.60;;;;;;5094256;28;20268;-44
2022/04/12 13:54:26;;;;;;;;;;;22.00;44.70;;;;;;5094572;28;19931;-44
2022/04/12 13:56:54;;;;;;;;;;;22.00;44.70;;;;;;5094626;28;19970;-44
2022/04/12 13:59:21;;;;;;;;;;;22.00;44.60;;;;;;5094565;28;19924;-45
2022/04/12 14:01:49;;;;;;;;;;;22.00;44.60;;;;;;5093543;28;19928;-44
2022/04/12 14:04:17;;;;;;;;;;;22.00;44.60;;;;;;5094313;28;19975;-44
2022/04/12 14:06:44;;;;;;;;;;;22.00;44.60;;;;;;5093882;28;19959;-44
2022/04/12 14:09:11;;;;;;;;;;;22.00;44.60;;;;;;5076802;28;20361;-48
2022/04/12 14:11:41;;;;;;;;;;;22.00;44.50;;;;;;5094291;28;19924;-47
2022/04/12 14:14:13;;;;;;;;;;;22.00;44.50;;;;;;5094298;28;20446;-46
2022/04/12 14:16:41;;;;;;;;;;;22.00;44.50;;;;;;5094216;28;19931;-44
2022/04/12 14:19:09;;;;;;;;;;;22.00;44.50;;;;;;5093609;28;19931;-47
2022/04/12 14:21:36;;;;;;;;;;;22.00;44.50;;;;;;5093329;28;19924;-50
2022/04/12 14:24:04;;;;;;;;;;;22.00;44.50;;;;;;5094032;28;20326;-47
2022/04/12 14:26:31;;;;;;;;;;;22.00;44.50;;;;;;5076250;28;19924;-45